This is the latest recevied weather packets stored in our database for station/object E27ASY-4. If no packets are shown the sender has not sent any weather packets the latest 1 day(s).
| Time | Temp. | Humidity | Pressure | Rain* | Wind** | Luminosity | Snow |
|---|---|---|---|---|---|---|---|
| 1778067816 | 31.67° C | 93% | 1003 hPa | - | - | 0 W/m² | - |
| 1778067494 | 31.67° C | 93% | 1003 hPa | - | - | 0 W/m² | - |
| 1778067172 | 31.67° C | 90% | 1003 hPa | - | - | 0 W/m² | - |
| 1778066850 | 32.22° C | 91% | 1003 hPa | - | - | 0 W/m² | - |
| 1778066528 | 32.22° C | 92% | 1003 hPa | - | - | 0 W/m² | - |
| 1778066206 | 32.22° C | 88% | 1003 hPa | - | - | 0 W/m² | - |
| 1778065884 | 32.22° C | 84% | 1003 hPa | - | - | 0 W/m² | - |
| 1778065562 | 32.78° C | 87% | 1003 hPa | - | - | 0 W/m² | - |
| 1778065240 | 32.78° C | 89% | 1002 hPa | - | - | 0 W/m² | - |
| 1778064918 | 32.78° C | 88% | 1002 hPa | - | - | 0 W/m² | - |
| 1778064596 | 32.78° C | 88% | 1002 hPa | - | - | 0 W/m² | - |
| 1778064274 | 33.33° C | 86% | 1002 hPa | - | - | 0 W/m² | - |
| 1778063952 | 33.33° C | 87% | 1002 hPa | - | - | 0 W/m² | - |
| 1778059765 | 33.33° C | 90% | 1002 hPa | - | - | 0 W/m² | - |
| 1778059122 | 33.33° C | 94% | 1002 hPa | - | - | 0 W/m² | - |
| 1778057817 | 33.89° C | 93% | 1002 hPa | - | - | 0 W/m² | - |
| 1778057173 | 33.89° C | 86% | 1002 hPa | - | - | 0 W/m² | - |
| 1778056529 | 33.89° C | 92% | 1002 hPa | - | - | 0 W/m² | - |
| 1778054597 | 32.78° C | 99% | 1003 hPa | - | - | 0 W/m² | - |
| 1778053953 | 32.22° C | 97% | 1003 hPa | - | - | 0 W/m² | - |
| 1778053631 | 32.22° C | 93% | 1003 hPa | - | - | 0 W/m² | - |
| 1778053309 | 32.22° C | 99% | 1003 hPa | - | - | 0 W/m² | - |
| 1778052665 | 31.67° C | 99% | 1003 hPa | - | - | 0 W/m² | - |
| 1778052021 | 32.22° C | 99% | 1003 hPa | - | - | 0 W/m² | - |
| 1778049767 | 35.56° C | 55% | 1004 hPa | - | - | 0 W/m² | - |
* Rain since midnight (hover to see other rain measurements)
** Current wind speed in m/s (hover to see current wind gust speed)